Terminal Aerodrome Forecast
Issued by NWS

Home | Current Version | Previous Version | Text Only | Print | Product List | Glossary On
Versions: 1 2 3 4 5 6 7 8 9 10 11 12 13 14 15 16 17 18 19 20 21 22 23 24
000
FTUS43 KAPX 221133
TAFPLN
TAF
KPLN 221133Z 2212/2312 12004KT 1/4SM FG OVC002
     FM221500 VRB03KT 1/2SM FG OVC003
     FM221700 VRB03KT 1SM BR OVC005
     FM230300 00000KT 1/2SM -DZ FG OVC003
     FM230900 VRB03KT 1/2SM -DZ FG OVC001=

USA.gov is the U.S. government's official web portal to all federal, state and local government web resources and services.